Time;durP1;ratioP1;P1;durP2;ratioP2;P2;SDS_P1;SDS_P2;PMS_P1;PMS_P2;Temp;Humidity;BMP_temperature;BMP_pressure;BME280_temperature;BME280_humidity;BME280_pressure;Samples;Min_cycle;Max_cycle;Signal;HPM_P1;HPM_P2
2021/11/10 00:00:09;;;;;;;;;;;;;;;13.66;49.47;102138.50;4151567;28;19917;-63
2021/11/10 00:02:11;;;;;;;;;;;;;;;13.64;49.60;102138.53;4153907;28;19948;-64
2021/11/10 00:04:13;;;;;;;;;;;;;;;13.62;49.58;102135.06;4153254;28;19975;-61
2021/11/10 00:06:15;;;;;;;;;;;;;;;13.61;49.51;102135.97;4152863;28;19917;-64
2021/11/10 00:08:17;;;;;;;;;;;;;;;13.60;49.58;102141.28;4150071;28;19921;-64
2021/11/10 00:10:19;;;;;;;;;;;;;;;13.58;49.57;102136.03;4150438;28;19932;-63
2021/11/10 00:12:20;;;;;;;;;;;;;;;13.55;49.37;102134.34;4149940;28;20298;-64
2021/11/10 00:14:23;;;;;;;;;;;;;;;13.54;49.52;102132.59;4153074;28;19932;-62
2021/11/10 00:16:25;;;;;;;;;;;;;;;13.53;49.48;102128.22;4149620;28;19921;-62
2021/11/10 00:18:27;;;;;;;;;;;;;;;13.51;49.72;102119.47;4150576;28;19922;-61
2021/11/10 00:20:29;;;;;;;;;;;;;;;13.50;49.51;102116.84;4150204;28;19921;-64
2021/11/10 00:22:31;;;;;;;;;;;;;;;13.48;49.76;102119.53;4150518;28;19921;-65
2021/11/10 00:24:34;;;;;;;;;;;;;;;13.46;49.62;102126.63;4149559;28;19921;-64
2021/11/10 00:26:36;;;;;;;;;;;;;;;13.45;49.59;102116.09;4152068;28;20205;-63
2021/11/10 00:28:38;;;;;;;;;;;;;;;13.44;49.66;102120.53;4150668;28;20078;-62
2021/11/10 00:30:40;;;;;;;;;;;;;;;13.42;49.97;102112.63;4155915;28;19925;-63
2021/11/10 00:32:42;;;;;;;;;;;;;;;13.41;49.71;102110.91;4151220;28;19929;-62
2021/11/10 00:34:44;;;;;;;;;;;;;;;13.40;49.65;102095.97;4152761;28;19929;-61
2021/11/10 00:36:46;;;;;;;;;;;;;;;13.38;49.66;102087.19;4149557;28;20425;-61
2021/11/10 00:38:48;;;;;;;;;;;;;;;13.38;49.86;102094.28;4152794;28;19917;-63
2021/11/10 00:40:51;;;;;;;;;;;;;;;13.36;49.77;102103.97;4151472;28;19921;-62
2021/11/10 00:42:53;;;;;;;;;;;;;;;13.35;49.95;102108.38;4151025;28;20543;-62
2021/11/10 00:45:00;;;;;;;;;;;;;;;13.34;49.90;102116.34;4148757;28;19921;-62
2021/11/10 00:47:03;;;;;;;;;;;;;;;13.33;49.72;102114.59;4152967;28;19944;-62
2021/11/10 00:49:05;;;;;;;;;;;;;;;13.31;49.68;102106.72;4151274;28;20376;-63
2021/11/10 00:51:07;;;;;;;;;;;;;;;13.31;50.01;102106.72;4151005;28;19917;-62
2021/11/10 00:53:09;;;;;;;;;;;;;;;13.29;50.00;102103.22;4152901;28;19924;-63
2021/11/10 00:55:11;;;;;;;;;;;;;;;13.29;49.82;102111.16;4152953;28;19921;-62
2021/11/10 00:57:14;;;;;;;;;;;;;;;13.28;49.82;102106.81;4152368;28;19928;-63
2021/11/10 00:59:16;;;;;;;;;;;;;;;13.26;49.83;102098.91;4148790;28;19921;-65
2021/11/10 01:01:18;;;;;;;;;;;;;;;13.25;49.99;102091.88;4106479;28;1174293;-65
2021/11/10 01:03:22;;;;;;;;;;;;;;;13.23;49.84;102093.72;4150362;28;19921;-63
2021/11/10 01:05:24;;;;;;;;;;;;;;;13.22;49.77;102094.59;4151504;28;19980;-63
2021/11/10 01:07:27;;;;;;;;;;;;;;;13.21;50.18;102089.38;4152445;28;19975;-61
2021/11/10 01:09:31;;;;;;;;;;;;;;;13.20;49.83;102080.56;4154295;28;19917;-62
2021/11/10 01:11:33;;;;;;;;;;;;;;;13.20;49.99;102077.06;4151391;28;19932;-63
2021/11/10 01:13:35;;;;;;;;;;;;;;;13.19;49.84;102067.41;4148998;28;20571;-63
2021/11/10 01:15:39;;;;;;;;;;;;;;;13.18;50.14;102065.66;4149996;28;20459;-63
2021/11/10 01:17:42;;;;;;;;;;;;;;;13.16;49.97;102071.00;4150794;28;19924;-62
2021/11/10 01:19:44;;;;;;;;;;;;;;;13.16;49.80;102064.81;4153516;28;19917;-61
2021/11/10 01:21:46;;;;;;;;;;;;;;;13.14;49.97;102056.09;4151087;28;19917;-60
2021/11/10 01:23:47;;;;;;;;;;;;;;;13.13;50.08;102065.75;4136003;28;19921;-62
2021/11/10 01:25:49;;;;;;;;;;;;;;;13.12;49.98;102068.47;4143607;28;20233;-63
2021/11/10 01:27:51;;;;;;;;;;;;;;;13.10;50.01;102063.22;4150649;28;19917;-62
2021/11/10 01:29:53;;;;;;;;;;;;;;;13.09;50.10;102072.91;4149732;28;19968;-63
2021/11/10 01:31:55;;;;;;;;;;;;;;;13.08;50.10;102068.50;4149020;28;19968;-63
2021/11/10 01:33:57;;;;;;;;;;;;;;;13.07;50.28;102071.19;4156108;28;19933;-63
2021/11/10 01:35:59;;;;;;;;;;;;;;;13.06;49.82;102069.47;4153281;28;19918;-61
2021/11/10 01:38:01;;;;;;;;;;;;;;;13.05;49.91;102063.31;4153044;28;19917;-63
2021/11/10 01:40:04;;;;;;;;;;;;;;;13.04;50.46;102058.94;4152677;28;19964;-63
2021/11/10 01:42:06;;;;;;;;;;;;;;;13.04;49.97;102056.31;4152516;28;19921;-60
2021/11/10 01:44:19;;;;;;;;;;;;;;;13.03;50.03;102051.91;4151455;28;19921;-60
2021/11/10 01:46:21;;;;;;;;;;;;;;;13.03;50.28;102061.63;4151091;28;19925;-61
2021/11/10 01:48:25;;;;;;;;;;;;;;;13.02;50.32;102068.66;4152417;28;19917;-61
2021/11/10 01:50:27;;;;;;;;;;;;;;;13.01;50.37;102068.72;4154473;28;19924;-64
2021/11/10 01:52:29;;;;;;;;;;;;;;;13.00;50.01;102059.94;4150300;28;19930;-64
2021/11/10 01:54:32;;;;;;;;;;;;;;;13.00;50.31;102061.69;4167720;28;19924;-64
2021/11/10 01:56:34;;;;;;;;;;;;;;;12.98;50.37;102056.44;4153886;28;19921;-63
2021/11/10 01:58:36;;;;;;;;;;;;;;;12.97;50.24;102060.00;4153688;28;21034;-63
2021/11/10 02:00:40;;;;;;;;;;;;;;;12.96;50.16;102055.63;4151628;28;19917;-60
2021/11/10 02:02:42;;;;;;;;;;;;;;;12.96;50.16;102060.03;4152587;28;19917;-63
2021/11/10 02:04:45;;;;;;;;;;;;;;;12.94;50.18;102066.22;4151474;28;19917;-62
2021/11/10 02:06:47;;;;;;;;;;;;;;;12.94;50.19;102065.34;4151044;28;19917;-63
2021/11/10 02:08:49;;;;;;;;;;;;;;;12.93;50.43;102080.31;4149884;28;19921;-61
2021/11/10 02:10:51;;;;;;;;;;;;;;;12.91;50.21;102076.84;4151465;28;19962;-63
2021/11/10 02:12:54;;;;;;;;;;;;;;;12.91;50.39;102079.47;4150243;28;19921;-61
2021/11/10 02:14:58;;;;;;;;;;;;;;;12.91;50.21;102078.63;4149163;28;20021;-61
2021/11/10 02:16:59;;;;;;;;;;;;;;;12.90;50.26;102079.53;4153299;28;19956;-66
2021/11/10 02:19:03;;;;;;;;;;;;;;;12.88;50.21;102066.38;4150405;28;19925;-62
2021/11/10 02:21:07;;;;;;;;;;;;;;;12.88;50.15;102055.81;4165309;28;19928;-61
2021/11/10 02:23:09;;;;;;;;;;;;;;;12.87;50.24;102053.22;4152768;28;20227;-62
2021/11/10 02:25:12;;;;;;;;;;;;;;;12.86;50.43;102047.03;4151536;28;20377;-64
2021/11/10 02:27:19;;;;;;;;;;;;;;;12.84;50.34;102054.13;4152445;28;19921;-63
2021/11/10 02:29:23;;;;;;;;;;;;;;;12.84;50.14;102050.63;4152209;28;19917;-63
2021/11/10 02:31:25;;;;;;;;;;;;;;;12.84;50.39;102050.63;4150219;28;19922;-61
2021/11/10 02:33:28;;;;;;;;;;;;;;;12.83;50.20;102040.97;4152157;28;19921;-61
2021/11/10 02:35:31;;;;;;;;;;;;;;;12.82;50.38;102034.84;4150004;28;20024;-61
2021/11/10 02:37:34;;;;;;;;;;;;;;;12.81;50.63;102032.22;4151598;28;19956;-62
2021/11/10 02:39:36;;;;;;;;;;;;;;;12.78;50.35;102028.75;4151584;28;20210;-65
2021/11/10 02:41:39;;;;;;;;;;;;;;;12.80;50.28;102027.84;4149019;28;19929;-63
2021/11/10 02:43:41;;;;;;;;;;;;;;;12.79;50.00;102032.25;4151551;28;19917;-64
2021/11/10 02:45:43;;;;;;;;;;;;;;;12.78;50.20;102026.13;4153243;28;19917;-62
2021/11/10 02:47:45;;;;;;;;;;;;;;;12.76;50.48;102024.41;4149799;28;19948;-62
2021/11/10 02:49:48;;;;;;;;;;;;;;;12.76;50.39;102024.41;4150095;28;19987;-61
2021/11/10 02:51:52;;;;;;;;;;;;;;;12.75;50.40;102023.53;4150065;28;19917;-63
2021/11/10 02:53:54;;;;;;;;;;;;;;;12.75;50.31;102030.59;4150158;28;20001;-64
2021/11/10 02:55:56;;;;;;;;;;;;;;;12.74;50.28;102031.50;4149315;28;19921;-62
2021/11/10 02:57:58;;;;;;;;;;;;;;;12.73;50.47;102022.69;4155042;28;19932;-63
2021/11/10 03:00:00;;;;;;;;;;;;;;;12.72;50.32;102028.91;4156697;28;20275;-60
2021/11/10 03:02:03;;;;;;;;;;;;;;;12.70;50.50;102025.44;4156426;28;20296;-64
2021/11/10 03:04:17;;;;;;;;;;;;;;;12.70;50.52;102019.28;4152823;28;19940;-61
2021/11/10 03:06:18;;;;;;;;;;;;;;;12.69;50.50;102018.41;4154630;28;19917;-62
2021/11/10 03:08:21;;;;;;;;;;;;;;;12.68;50.30;102016.66;4154097;28;19921;-66
2021/11/10 03:10:24;;;;;;;;;;;;;;;12.68;50.24;102015.81;4151228;28;20330;-61
2021/11/10 03:12:26;;;;;;;;;;;;;;;12.67;50.45;102016.72;4141785;28;19996;-63
2021/11/10 03:14:29;;;;;;;;;;;;;;;12.66;50.45;102021.13;4146136;28;19918;-60
2021/11/10 03:16:31;;;;;;;;;;;;;;;12.66;50.51;102022.88;4153927;28;19956;-64
2021/11/10 03:18:33;;;;;;;;;;;;;;;12.64;50.53;101999.19;4151877;28;20366;-61
2021/11/10 03:20:36;;;;;;;;;;;;;;;12.63;50.31;102006.22;4153996;28;19917;-63
2021/11/10 03:22:38;;;;;;;;;;;;;;;12.63;50.56;102010.63;4151865;28;19921;-62
2021/11/10 03:24:40;;;;;;;;;;;;;;;12.63;50.27;102015.91;4151302;28;19925;-63
2021/11/10 03:26:43;;;;;;;;;;;;;;;12.62;50.14;102008.91;4152453;28;20157;-63
2021/11/10 03:28:45;;;;;;;;;;;;;;;12.61;50.51;102015.97;4152874;28;20373;-60
2021/11/10 03:30:47;;;;;;;;;;;;;;;12.59;50.36;102012.47;4152236;28;19930;-61
2021/11/10 03:32:51;;;;;;;;;;;;;;;12.60;50.49;102015.97;4152727;28;20221;-61
2021/11/10 03:34:53;;;;;;;;;;;;;;;12.58;50.31;102012.53;4152559;28;19921;-62
2021/11/10 03:36:55;;;;;;;;;;;;;;;12.58;50.52;102010.75;4154931;28;19996;-61
2021/11/10 03:39:02;;;;;;;;;;;;;;;12.57;50.57;102008.13;4154074;28;19918;-64
2021/11/10 03:41:04;;;;;;;;;;;;;;;12.57;50.37;102021.34;4154489;28;19917;-65
2021/11/10 03:43:06;;;;;;;;;;;;;;;12.56;50.60;102025.72;4157487;28;19917;-63
2021/11/10 03:45:09;;;;;;;;;;;;;;;12.56;50.18;102031.00;4154145;28;19921;-60
2021/11/10 03:47:11;;;;;;;;;;;;;;;12.54;50.31;102026.66;4153533;28;20008;-63
2021/11/10 03:49:14;;;;;;;;;;;;;;;12.55;50.37;102024.03;4153623;28;20388;-64
2021/11/10 03:51:16;;;;;;;;;;;;;;;12.52;50.50;102020.59;4153288;28;19917;-63
2021/11/10 03:53:19;;;;;;;;;;;;;;;12.52;50.51;102024.06;4155713;28;19917;-63
2021/11/10 03:55:21;;;;;;;;;;;;;;;12.51;50.48;102027.63;4154705;28;19925;-59
2021/11/10 03:57:23;;;;;;;;;;;;;;;12.51;50.38;102010.94;4154391;28;20105;-61
2021/11/10 03:59:25;;;;;;;;;;;;;;;12.50;50.31;102017.09;4151389;28;19966;-64
2021/11/10 04:01:27;;;;;;;;;;;;;;;12.49;50.31;102026.81;4151228;28;19922;-64
2021/11/10 04:03:29;;;;;;;;;;;;;;;12.49;50.29;102034.72;4151744;28;20120;-64
2021/11/10 04:05:31;;;;;;;;;;;;;;;12.49;50.24;102028.56;4151447;28;19917;-63
2021/11/10 04:07:33;;;;;;;;;;;;;;;12.48;50.32;102042.66;4157122;28;19917;-60
2021/11/10 04:09:35;;;;;;;;;;;;;;;12.47;50.21;102049.72;4153420;28;19971;-63
2021/11/10 04:11:38;;;;;;;;;;;;;;;12.46;50.48;102055.88;4155010;28;19921;-60
2021/11/10 04:13:40;;;;;;;;;;;;;;;12.45;50.29;102062.94;4151799;28;20448;-63
2021/11/10 04:15:42;;;;;;;;;;;;;;;12.44;50.19;102071.75;4149500;28;20093;-61
2021/11/10 04:17:43;;;;;;;;;;;;;;;12.44;50.11;102097.25;4152080;28;19922;-64
2021/11/10 04:19:45;;;;;;;;;;;;;;;12.43;50.50;102096.41;4151824;28;20209;-61
2021/11/10 04:21:47;;;;;;;;;;;;;;;12.43;50.26;102074.41;4153932;28;19917;-62
2021/11/10 04:23:53;;;;;;;;;;;;;;;12.42;50.45;102073.53;4165148;28;20409;-63
2021/11/10 04:25:55;;;;;;;;;;;;;;;12.41;50.33;102084.13;4149765;28;19917;-61
2021/11/10 04:27:57;;;;;;;;;;;;;;;12.41;50.42;102082.34;4149639;28;19963;-61
2021/11/10 04:29:59;;;;;;;;;;;;;;;12.40;50.40;102077.97;4151453;28;19925;-61
2021/11/10 04:32:01;;;;;;;;;;;;;;;12.39;50.19;102076.22;4151997;28;19951;-62
2021/11/10 04:34:04;;;;;;;;;;;;;;;12.39;50.33;102076.22;4156741;28;19967;-63
2021/11/10 04:36:06;;;;;;;;;;;;;;;12.38;50.45;102077.16;4153286;28;20109;-61
2021/11/10 04:38:08;;;;;;;;;;;;;;;12.37;50.32;102072.78;4155995;28;19964;-61
2021/11/10 04:40:11;;;;;;;;;;;;;;;12.37;50.42;102064.88;4148443;28;20405;-61
2021/11/10 04:42:14;;;;;;;;;;;;;;;12.36;50.08;102070.16;4153829;28;20527;-64
2021/11/10 04:44:16;;;;;;;;;;;;;;;12.35;50.42;102071.09;4152142;28;20349;-62
2021/11/10 04:48:23;;;;;;;;;;;;;;;12.35;50.45;102063.16;4152263;28;19925;-61
2021/11/10 04:50:25;;;;;;;;;;;;;;;12.34;50.45;102064.91;4151459;28;19921;-62
2021/11/10 04:52:27;;;;;;;;;;;;;;;12.34;50.26;102072.84;4151140;28;19929;-60
2021/11/10 04:54:30;;;;;;;;;;;;;;;12.33;50.26;102071.09;4155462;28;19917;-60
2021/11/10 04:56:33;;;;;;;;;;;;;;;12.32;50.46;102072.03;4150519;28;19928;-61
2021/11/10 04:58:36;;;;;;;;;;;;;;;12.32;50.51;102073.78;4149154;28;19996;-61
2021/11/10 05:00:39;;;;;;;;;;;;;;;12.31;50.50;102070.28;4153471;28;19917;-60
2021/11/10 05:02:41;;;;;;;;;;;;;;;12.31;50.48;102062.38;4152560;28;20145;-63
2021/11/10 05:04:44;;;;;;;;;;;;;;;12.30;50.60;102055.34;4150121;28;19921;-60
2021/11/10 05:06:46;;;;;;;;;;;;;;;12.30;50.42;102052.72;4149424;28;19975;-61
2021/11/10 05:08:48;;;;;;;;;;;;;;;12.29;50.37;102038.63;4149870;28;19941;-63
2021/11/10 05:10:50;;;;;;;;;;;;;;;12.28;50.47;102041.31;4149962;28;19921;-63
2021/11/10 05:12:52;;;;;;;;;;;;;;;12.29;50.70;102035.16;4150785;28;19953;-63
2021/11/10 05:14:55;;;;;;;;;;;;;;;12.28;50.45;102030.75;4151787;28;19933;-59
2021/11/10 05:16:57;;;;;;;;;;;;;;;12.27;50.43;102023.75;4153246;28;20417;-63
2021/11/10 05:18:59;;;;;;;;;;;;;;;12.25;50.19;102020.28;4153134;28;20312;-60
2021/11/10 05:21:01;;;;;;;;;;;;;;;12.26;50.55;102014.09;4150230;28;20004;-60
2021/11/10 05:23:03;;;;;;;;;;;;;;;12.25;50.55;102015.03;4150627;28;19925;-62
2021/11/10 05:25:06;;;;;;;;;;;;;;;12.24;50.55;102008.00;4147197;28;19944;-60
2021/11/10 05:27:09;;;;;;;;;;;;;;;12.24;50.55;102010.63;4151011;28;20218;-63
2021/11/10 05:29:11;;;;;;;;;;;;;;;12.23;50.33;102016.81;4152545;28;20377;-59
2021/11/10 05:31:13;;;;;;;;;;;;;;;12.23;50.54;102024.72;4152309;28;19918;-59
2021/11/10 05:33:15;;;;;;;;;;;;;;;12.23;50.35;102027.38;4154070;28;19917;-61
2021/11/10 05:35:17;;;;;;;;;;;;;;;12.22;50.35;102026.47;4148177;28;19921;-61
2021/11/10 05:37:19;;;;;;;;;;;;;;;12.21;50.19;102013.31;4150856;28;20090;-59
2021/11/10 05:39:21;;;;;;;;;;;;;;;12.21;50.27;102015.97;4153352;28;19946;-60
2021/11/10 05:41:24;;;;;;;;;;;;;;;12.20;50.38;102014.22;4152972;28;20404;-62
2021/11/10 05:43:26;;;;;;;;;;;;;;;12.19;50.28;102009.84;4154856;28;19917;-62
2021/11/10 05:45:28;;;;;;;;;;;;;;;12.20;50.43;102006.31;4153906;28;19917;-61
2021/11/10 05:47:30;;;;;;;;;;;;;;;12.18;50.22;102009.00;4150733;28;19992;-63
2021/11/10 05:49:31;;;;;;;;;;;;;;;12.17;50.25;102001.97;4151221;28;19953;-60
2021/11/10 05:51:34;;;;;;;;;;;;;;;12.17;50.48;102001.13;4151383;28;19921;-60
2021/11/10 05:53:43;;;;;;;;;;;;;;;12.16;50.50;101999.38;4151586;28;19968;-61
2021/11/10 05:55:45;;;;;;;;;;;;;;;12.16;50.47;101996.75;4149449;28;19937;-60
2021/11/10 05:57:48;;;;;;;;;;;;;;;12.15;50.29;101987.94;4153590;28;20000;-63
2021/11/10 05:59:50;;;;;;;;;;;;;;;12.14;50.40;101983.59;4154006;28;19917;-60
2021/11/10 06:01:52;;;;;;;;;;;;;;;12.13;50.32;101995.91;4150733;28;20116;-63
2021/11/10 06:03:55;;;;;;;;;;;;;;;12.12;50.41;102007.34;4153785;28;19917;-60
2021/11/10 06:05:57;;;;;;;;;;;;;;;12.11;50.29;102013.53;4150621;28;20156;-62
2021/11/10 06:07:58;;;;;;;;;;;;;;;12.11;50.47;102026.72;4152846;28;19933;-61
2021/11/10 06:10:01;;;;;;;;;;;;;;;12.11;50.30;102020.56;4151770;28;19922;-60
2021/11/10 06:12:03;;;;;;;;;;;;;;;12.09;50.63;102023.25;4151941;28;19932;-60
2021/11/10 06:14:05;;;;;;;;;;;;;;;12.09;50.48;102033.81;4152167;28;19917;-62
2021/11/10 06:16:07;;;;;;;;;;;;;;;12.09;50.17;102046.09;4151949;28;20377;-64
2021/11/10 06:18:09;;;;;;;;;;;;;;;12.08;50.32;102049.66;4152464;28;19984;-63
2021/11/10 06:20:12;;;;;;;;;;;;;;;12.08;50.31;102057.56;4150791;28;19921;-63
2021/11/10 06:22:14;;;;;;;;;;;;;;;12.07;50.23;102058.47;4148731;28;19929;-60
2021/11/10 06:24:20;;;;;;;;;;;;;;;12.07;50.28;102063.75;4151978;28;19917;-60
2021/11/10 06:26:22;;;;;;;;;;;;;;;12.06;50.44;102064.63;4151429;28;19921;-63
2021/11/10 06:28:24;;;;;;;;;;;;;;;12.05;50.09;102062.91;4152545;28;19922;-61
2021/11/10 06:30:26;;;;;;;;;;;;;;;12.04;50.50;102063.78;4151118;28;19943;-59
2021/11/10 06:32:28;;;;;;;;;;;;;;;12.04;50.24;102063.78;4149055;28;20055;-63
2021/11/10 06:34:30;;;;;;;;;;;;;;;12.03;50.26;102075.22;4152846;28;19975;-60
2021/11/10 06:36:32;;;;;;;;;;;;;;;12.04;50.35;102087.53;4152175;28;20432;-62
2021/11/10 06:38:34;;;;;;;;;;;;;;;12.03;50.47;102091.94;4154201;28;20219;-63
2021/11/10 06:40:36;;;;;;;;;;;;;;;12.02;50.41;102091.94;4154067;28;19964;-59
2021/11/10 06:42:40;;;;;;;;;;;;;;;12.02;50.43;102098.09;4154306;28;19968;-60
2021/11/10 06:44:42;;;;;;;;;;;;;;;12.01;50.24;102099.00;4154236;28;19968;-62
2021/11/10 06:46:44;;;;;;;;;;;;;;;12.00;50.33;102097.25;4154145;28;19937;-60
2021/11/10 06:48:46;;;;;;;;;;;;;;;12.01;50.32;102098.16;4152925;28;19922;-61
2021/11/10 06:50:48;;;;;;;;;;;;;;;12.00;50.45;102106.94;4154305;28;19919;-63
2021/11/10 06:52:50;;;;;;;;;;;;;;;11.98;50.43;102122.78;4154527;28;19917;-64
2021/11/10 06:54:52;;;;;;;;;;;;;;;11.98;50.22;102126.31;4155535;28;19921;-63
2021/11/10 06:56:54;;;;;;;;;;;;;;;11.98;50.24;102139.47;4154855;28;19921;-64
2021/11/10 06:58:57;;;;;;;;;;;;;;;11.97;50.51;102143.00;4154457;28;19918;-62
2021/11/10 07:00:59;;;;;;;;;;;;;;;11.97;50.40;102144.78;4155530;28;19928;-62
2021/11/10 07:03:02;;;;;;;;;;;;;;;11.96;50.35;102143.03;4151774;28;19937;-63
2021/11/10 07:05:04;;;;;;;;;;;;;;;11.96;50.14;102153.56;4155242;28;19921;-63
2021/11/10 07:07:06;;;;;;;;;;;;;;;11.96;50.21;102164.09;4157890;28;19964;-63
2021/11/10 07:09:08;;;;;;;;;;;;;;;11.95;50.17;102159.72;4152433;28;20522;-62
2021/11/10 07:11:10;;;;;;;;;;;;;;;11.94;50.20;102155.34;4155042;28;19975;-63
2021/11/10 07:13:12;;;;;;;;;;;;;;;11.93;50.43;102156.25;4155808;28;19964;-63
2021/11/10 07:15:14;;;;;;;;;;;;;;;11.92;50.23;102152.75;4152285;28;19944;-64
2021/11/10 07:17:16;;;;;;;;;;;;;;;11.92;50.25;102146.59;4152181;28;19921;-60
2021/11/10 07:19:19;;;;;;;;;;;;;;;11.92;50.32;102139.56;4152835;28;20086;-61
2021/11/10 07:21:21;;;;;;;;;;;;;;;11.92;50.07;102128.13;4152342;28;19925;-60
2021/11/10 07:23:23;;;;;;;;;;;;;;;11.91;50.41;102134.31;4155493;28;19984;-63
2021/11/10 07:25:28;;;;;;;;;;;;;;;11.90;50.32;102130.81;4150602;28;19917;-61
2021/11/10 07:27:30;;;;;;;;;;;;;;;11.89;50.34;102129.06;4152488;28;19922;-63
2021/11/10 07:29:32;;;;;;;;;;;;;;;11.89;50.49;102130.84;4150880;28;19968;-62
2021/11/10 07:31:35;;;;;;;;;;;;;;;11.89;50.01;102128.22;4150813;28;19921;-63
2021/11/10 07:33:37;;;;;;;;;;;;;;;11.87;50.16;102136.16;4154226;28;19921;-62
2021/11/10 07:35:39;;;;;;;;;;;;;;;11.87;50.48;102135.25;4155511;28;19918;-62
2021/11/10 07:37:42;;;;;;;;;;;;;;;11.87;50.44;102135.25;4154928;28;20157;-62
2021/11/10 07:39:45;;;;;;;;;;;;;;;11.87;50.31;102122.09;4151806;28;19921;-63
2021/11/10 07:41:49;;;;;;;;;;;;;;;11.86;50.37;102125.63;4149514;28;20366;-63
2021/11/10 07:43:53;;;;;;;;;;;;;;;11.86;50.31;102126.50;4148456;28;20413;-60
2021/11/10 07:45:59;;;;;;;;;;;;;;;11.86;50.18;102126.50;4154180;28;19917;-62
2021/11/10 07:48:03;;;;;;;;;;;;;;;11.85;50.29;102124.75;4155850;28;19933;-62
2021/11/10 07:50:05;;;;;;;;;;;;;;;11.83;50.47;102113.38;4149606;28;19948;-63
2021/11/10 07:52:07;;;;;;;;;;;;;;;11.82;50.11;102120.41;4148868;28;19921;-64
2021/11/10 07:54:09;;;;;;;;;;;;;;;11.83;50.24;102116.00;4149459;28;19929;-60
2021/11/10 07:56:11;;;;;;;;;;;;;;;11.82;50.18;102120.41;4149932;28;19956;-62
2021/11/10 07:58:13;;;;;;;;;;;;;;;11.82;50.55;102111.63;4148539;28;20324;-60
2021/11/10 08:00:16;;;;;;;;;;;;;;;11.81;50.17;102102.84;4147488;28;19928;-62
2021/11/10 08:02:20;;;;;;;;;;;;;;;11.82;50.40;102103.72;4155475;28;19922;-61
2021/11/10 08:04:22;;;;;;;;;;;;;;;11.81;50.31;102102.84;4149795;28;19922;-63
2021/11/10 08:06:24;;;;;;;;;;;;;;;11.81;50.40;102100.22;4151543;28;19928;-63
2021/11/10 08:08:26;;;;;;;;;;;;;;;11.81;50.12;102105.50;4150682;28;19921;-64
2021/11/10 08:10:28;;;;;;;;;;;;;;;11.80;50.19;102103.75;4152724;28;19921;-62
2021/11/10 08:12:31;;;;;;;;;;;;;;;11.80;50.42;102105.53;4152703;28;19979;-62
2021/11/10 08:14:33;;;;;;;;;;;;;;;11.81;50.28;102120.41;4150365;28;19929;-61
2021/11/10 08:16:35;;;;;;;;;;;;;;;11.80;50.14;102122.19;4153410;28;19971;-64
2021/11/10 08:18:37;;;;;;;;;;;;;;;11.81;50.05;102126.56;4148008;28;20589;-60
2021/11/10 08:20:39;;;;;;;;;;;;;;;11.80;50.04;102123.97;4151156;28;19972;-64
2021/11/10 08:22:41;;;;;;;;;;;;;;;11.80;50.38;102130.09;4150654;28;19921;-62
2021/11/10 08:24:47;;;;;;;;;;;;;;;11.79;50.57;102133.63;4152177;28;19918;-62
2021/11/10 08:26:49;;;;;;;;;;;;;;;11.79;50.42;102132.78;4150934;28;19928;-62
2021/11/10 08:28:51;;;;;;;;;;;;;;;11.80;50.28;102134.53;4151610;28;19928;-61
2021/11/10 08:30:54;;;;;;;;;;;;;;;11.80;50.58;102145.91;4153200;28;19917;-60
2021/11/10 08:33:00;;;;;;;;;;;;;;;11.80;50.34;102139.78;4150675;28;19922;-62
2021/11/10 08:35:03;;;;;;;;;;;;;;;11.79;50.15;102151.22;4150105;28;20285;-60
2021/11/10 08:37:05;;;;;;;;;;;;;;;11.79;50.43;102157.34;4150469;28;19921;-60
2021/11/10 08:39:07;;;;;;;;;;;;;;;11.79;50.25;102160.00;4147860;28;19958;-63
2021/11/10 08:41:09;;;;;;;;;;;;;;;11.80;50.19;102155.63;4167518;28;19917;-61
2021/11/10 08:43:12;;;;;;;;;;;;;;;11.80;50.20;102150.34;4149346;28;19921;-64
2021/11/10 08:45:16;;;;;;;;;;;;;;;11.79;50.29;102152.09;4148929;28;19924;-60
2021/11/10 08:47:21;;;;;;;;;;;;;;;11.79;50.37;102148.59;4139818;28;20467;-60
2021/11/10 08:49:23;;;;;;;;;;;;;;;11.79;50.34;102145.97;4148356;28;20347;-60
2021/11/10 08:51:26;;;;;;;;;;;;;;;11.79;50.45;102141.53;4150835;28;19928;-64
2021/11/10 08:53:28;;;;;;;;;;;;;;;11.79;50.41;102149.44;4154070;28;19964;-60
2021/11/10 08:55:30;;;;;;;;;;;;;;;11.79;50.55;102149.44;4152521;28;19921;-64
2021/11/10 08:57:32;;;;;;;;;;;;;;;11.79;50.35;102148.59;4148836;28;19988;-61
2021/11/10 08:59:34;;;;;;;;;;;;;;;11.79;50.37;102145.97;4151026;28;20381;-61
2021/11/10 09:01:37;;;;;;;;;;;;;;;11.79;50.50;102149.44;4151024;28;19917;-60
2021/11/10 09:03:40;;;;;;;;;;;;;;;11.79;50.41;102145.97;4151708;28;19917;-62
2021/11/10 09:05:42;;;;;;;;;;;;;;;11.79;50.42;102154.72;4152872;28;19924;-61
2021/11/10 09:07:44;;;;;;;;;;;;;;;11.80;50.51;102155.63;4151493;28;19921;-63
2021/11/10 09:09:51;;;;;;;;;;;;;;;11.80;50.22;102155.63;4150259;28;20297;-63
2021/11/10 09:11:53;;;;;;;;;;;;;;;11.80;50.20;102159.09;4150066;28;19943;-65
2021/11/10 09:13:56;;;;;;;;;;;;;;;11.79;50.28;102157.34;4149686;28;19948;-62
2021/11/10 09:15:59;;;;;;;;;;;;;;;11.80;50.45;102156.47;4149393;28;20210;-61
2021/11/10 09:18:02;;;;;;;;;;;;;;;11.81;50.13;102152.03;4150663;28;19975;-64
2021/11/10 09:20:06;;;;;;;;;;;;;;;11.81;50.29;102146.78;4150029;28;19921;-64
2021/11/10 09:22:07;;;;;;;;;;;;;;;11.81;50.43;102134.50;4150410;28;19960;-60
2021/11/10 09:24:10;;;;;;;;;;;;;;;11.82;50.36;102130.06;4150495;28;20269;-61
2021/11/10 09:26:12;;;;;;;;;;;;;;;11.81;50.49;102126.56;4147951;28;20028;-62
2021/11/10 09:28:15;;;;;;;;;;;;;;;11.81;50.27;102123.94;4149941;28;19921;-60
2021/11/10 09:30:18;;;;;;;;;;;;;;;11.81;50.22;102116.03;4151104;28;19956;-64
2021/11/10 09:32:20;;;;;;;;;;;;;;;11.83;50.30;102121.28;4150908;28;19936;-63
2021/11/10 09:34:22;;;;;;;;;;;;;;;11.82;50.45;102120.41;4148711;28;19944;-59
2021/11/10 09:36:24;;;;;;;;;;;;;;;11.83;50.54;102116.00;4150362;28;19925;-63
2021/11/10 09:38:26;;;;;;;;;;;;;;;11.82;50.34;102112.50;4150789;28;19922;-60
2021/11/10 09:40:30;;;;;;;;;;;;;;;11.83;50.30;102118.63;4152086;28;19921;-66
2021/11/10 09:42:33;;;;;;;;;;;;;;;11.82;50.25;102120.41;4151941;28;20048;-61
2021/11/10 09:44:35;;;;;;;;;;;;;;;11.82;50.19;102122.16;4154306;28;19917;-61
2021/11/10 09:46:38;;;;;;;;;;;;;;;11.84;50.59;102128.28;4151635;28;19927;-62
2021/11/10 09:48:41;;;;;;;;;;;;;;;11.83;50.53;102130.06;4147484;28;19925;-63
2021/11/10 09:50:45;;;;;;;;;;;;;;;11.84;50.69;102136.19;4151758;28;19964;-60
2021/11/10 09:52:48;;;;;;;;;;;;;;;11.83;50.49;102137.97;4148110;28;19929;-62
2021/11/10 09:54:50;;;;;;;;;;;;;;;11.85;50.32;102148.47;4148936;28;19967;-63
2021/11/10 09:56:54;;;;;;;;;;;;;;;11.85;50.54;102151.13;4152574;28;20102;-63
2021/11/10 09:58:56;;;;;;;;;;;;;;;11.86;50.39;102155.50;4150342;28;20141;-63
2021/11/10 10:01:00;;;;;;;;;;;;;;;11.86;50.54;102150.22;4147298;28;19921;-60
2021/11/10 10:03:03;;;;;;;;;;;;;;;11.88;50.16;102150.19;4148969;28;20447;-63
2021/11/10 10:05:06;;;;;;;;;;;;;;;11.87;50.20;102154.59;4149318;28;19975;-62
2021/11/10 10:07:09;;;;;;;;;;;;;;;11.73;50.34;102135.53;4147706;28;19922;-60
2021/11/10 10:09:12;;;;;;;;;;;;;;;11.88;50.37;102158.94;4154266;28;19917;-64
2021/11/10 10:11:14;;;;;;;;;;;;;;;11.88;50.23;102151.03;4154586;28;19956;-64
2021/11/10 10:13:17;;;;;;;;;;;;;;;11.89;50.61;102157.22;4155642;28;19922;-62
2021/11/10 10:15:21;;;;;;;;;;;;;;;11.89;50.38;102162.47;4152189;28;19925;-65
2021/11/10 10:17:34;;;;;;;;;;;;;;;11.90;50.49;102165.06;4151727;28;19921;-60
2021/11/10 10:19:37;;;;;;;;;;;;;;;11.90;50.55;102169.50;4154285;28;19918;-63
2021/11/10 10:21:41;;;;;;;;;;;;;;;11.91;50.95;102173.88;4156829;28;19917;-63
2021/11/10 10:23:49;;;;;;;;;;;;;;;11.92;50.90;102167.69;4150913;28;19956;-63
2021/11/10 10:25:54;;;;;;;;;;;;;;;11.94;50.77;102160.63;4152877;28;19932;-64
2021/11/10 10:27:57;;;;;;;;;;;;;;;11.94;50.89;102158.84;4150946;28;20393;-64
2021/11/10 10:30:24;;;;;;;;;;;;;;;11.97;51.06;102160.63;4147891;28;19928;-62